sensor_id;sensor_type;location;lat;lon;timestamp;pressure;altitude;pressure_sealevel;temperature;humidity
56402;BME280;42299;35.160;26.100;2023-06-22T00:01:29;100994.09;;;23.51;100.00
56402;BME280;42299;35.160;26.100;2023-06-22T00:11:52;100975.22;;;23.51;100.00
56402;BME280;42299;35.160;26.100;2023-06-22T00:22:16;100972.44;;;23.54;100.00
56402;BME280;42299;35.160;26.100;2023-06-22T00:32:38;100971.38;;;23.58;100.00
56402;BME280;42299;35.160;26.100;2023-06-22T00:43:03;100961.66;;;23.54;100.00
56402;BME280;42299;35.160;26.100;2023-06-22T00:53:27;100955.38;;;23.54;100.00
56402;BME280;42299;35.160;26.100;2023-06-22T01:03:31;100956.53;;;23.45;100.00
56402;BME280;42299;35.160;26.100;2023-06-22T01:13:57;100946.97;;;23.36;100.00
56402;BME280;42299;35.160;26.100;2023-06-22T01:24:27;100938.22;;;23.30;100.00
56402;BME280;42299;35.160;26.100;2023-06-22T01:34:54;100942.56;;;23.34;100.00
56402;BME280;42299;35.160;26.100;2023-06-22T01:45:17;100947.78;;;23.38;100.00
56402;BME280;42299;35.160;26.100;2023-06-22T01:55:42;100944.16;;;23.39;100.00
56402;BME280;42299;35.160;26.100;2023-06-22T02:06:07;100948.63;;;23.40;100.00
56402;BME280;42299;35.160;26.100;2023-06-22T02:16:34;100965.78;;;23.38;100.00
56402;BME280;42299;35.160;26.100;2023-06-22T02:26:59;100971.38;;;23.32;100.00
56402;BME280;42299;35.160;26.100;2023-06-22T02:37:23;100973.25;;;23.30;100.00
56402;BME280;42299;35.160;26.100;2023-06-22T02:47:46;100979.78;;;23.23;100.00
56402;BME280;42299;35.160;26.100;2023-06-22T02:58:12;100982.47;;;23.23;100.00
56402;BME280;42299;35.160;26.100;2023-06-22T03:08:34;100984.28;;;23.22;100.00
56402;BME280;42299;35.160;26.100;2023-06-22T03:18:59;100992.19;;;23.27;100.00
56402;BME280;42299;35.160;26.100;2023-06-22T03:29:22;100997.19;;;23.39;100.00
56402;BME280;42299;35.160;26.100;2023-06-22T03:39:47;100988.19;;;23.66;100.00
56402;BME280;42299;35.160;26.100;2023-06-22T03:50:11;100992.34;;;24.01;100.00
56402;BME280;42299;35.160;26.100;2023-06-22T04:00:36;100998.13;;;24.40;100.00
56402;BME280;42299;35.160;26.100;2023-06-22T04:10:59;101009.25;;;24.78;100.00
56402;BME280;42299;35.160;26.100;2023-06-22T04:21:23;101016.50;;;25.22;100.00
56402;BME280;42299;35.160;26.100;2023-06-22T04:31:45;101025.56;;;25.65;100.00
56402;BME280;42299;35.160;26.100;2023-06-22T04:42:14;101037.91;;;26.12;100.00
56402;BME280;42299;35.160;26.100;2023-06-22T04:52:36;101026.06;;;26.55;100.00
56402;BME280;42299;35.160;26.100;2023-06-22T05:03:02;101044.19;;;26.92;100.00
56402;BME280;42299;35.160;26.100;2023-06-22T05:13:27;101032.94;;;27.37;100.00
56402;BME280;42299;35.160;26.100;2023-06-22T05:23:52;101035.03;;;27.86;100.00
56402;BME280;42299;35.160;26.100;2023-06-22T05:34:14;101021.75;;;28.16;100.00
56402;BME280;42299;35.160;26.100;2023-06-22T05:44:39;101023.56;;;28.32;98.61
56402;BME280;42299;35.160;26.100;2023-06-22T05:55:02;101021.31;;;28.89;97.32
56402;BME280;42299;35.160;26.100;2023-06-22T06:05:27;101021.03;;;29.72;92.07
56402;BME280;42299;35.160;26.100;2023-06-22T06:15:49;101034.34;;;30.22;81.55
56402;BME280;42299;35.160;26.100;2023-06-22T06:26:17;101047.91;;;31.23;73.27
56402;BME280;42299;35.160;26.100;2023-06-22T06:36:48;101059.97;;;31.19;66.45
56402;BME280;42299;35.160;26.100;2023-06-22T06:47:13;101067.09;;;31.77;65.40
56402;BME280;42299;35.160;26.100;2023-06-22T06:57:36;101062.84;;;32.25;58.05
56402;BME280;42299;35.160;26.100;2023-06-22T07:08:01;101060.88;;;32.27;55.76
56402;BME280;42299;35.160;26.100;2023-06-22T07:18:24;101062.38;;;32.18;55.27
56402;BME280;42299;35.160;26.100;2023-06-22T07:28:48;101074.00;;;32.22;53.67
56402;BME280;42299;35.160;26.100;2023-06-22T07:39:11;101070.00;;;32.78;54.41
56402;BME280;42299;35.160;26.100;2023-06-22T07:49:36;101071.28;;;32.98;53.04
56402;BME280;42299;35.160;26.100;2023-06-22T07:59:59;101052.19;;;33.09;54.55
56402;BME280;42299;35.160;26.100;2023-06-22T08:10:35;101040.34;;;33.34;50.12
56402;BME280;42299;35.160;26.100;2023-06-22T08:20:58;101045.13;;;33.43;49.05
56402;BME280;42299;35.160;26.100;2023-06-22T08:31:23;101041.03;;;33.48;49.53
56402;BME280;42299;35.160;26.100;2023-06-22T08:41:45;101038.66;;;33.44;48.96
56402;BME280;42299;35.160;26.100;2023-06-22T08:52:10;101039.38;;;33.09;47.97
56402;BME280;42299;35.160;26.100;2023-06-22T09:02:32;101040.41;;;33.21;47.29
56402;BME280;42299;35.160;26.100;2023-06-22T09:12:41;101046.63;;;33.94;45.69
56402;BME280;42299;35.160;26.100;2023-06-22T09:23:04;101049.31;;;34.53;44.70
56402;BME280;42299;35.160;26.100;2023-06-22T09:33:29;101038.06;;;34.34;42.97
56402;BME280;42299;35.160;26.100;2023-06-22T09:43:52;101049.06;;;33.75;41.73
56402;BME280;42299;35.160;26.100;2023-06-22T09:54:16;101055.44;;;33.63;42.04
56402;BME280;42299;35.160;26.100;2023-06-22T10:04:39;101056.00;;;33.92;41.82
56402;BME280;42299;35.160;26.100;2023-06-22T10:15:04;101045.16;;;34.25;42.44
56402;BME280;42299;35.160;26.100;2023-06-22T10:25:29;101050.53;;;34.03;41.93
56402;BME280;42299;35.160;26.100;2023-06-22T10:35:53;101045.13;;;33.90;40.31
56402;BME280;42299;35.160;26.100;2023-06-22T10:46:16;101035.75;;;33.58;40.95
56402;BME280;42299;35.160;26.100;2023-06-22T10:56:41;101036.78;;;33.68;40.13
56402;BME280;42299;35.160;26.100;2023-06-22T11:06:43;101033.78;;;34.19;38.90
56402;BME280;42299;35.160;26.100;2023-06-22T11:17:02;101027.78;;;34.82;38.85
56402;BME280;42299;35.160;26.100;2023-06-22T11:27:25;101003.56;;;34.43;38.51
56402;BME280;42299;35.160;26.100;2023-06-22T11:37:50;101001.28;;;34.25;38.85
56402;BME280;42299;35.160;26.100;2023-06-22T11:48:13;101001.66;;;33.86;39.17
56402;BME280;42299;35.160;26.100;2023-06-22T11:58:37;101005.38;;;33.37;39.47
56402;BME280;42299;35.160;26.100;2023-06-22T12:08:59;100994.63;;;33.10;39.69
56402;BME280;42299;35.160;26.100;2023-06-22T12:19:23;100987.03;;;33.74;39.11
56402;BME280;42299;35.160;26.100;2023-06-22T12:29:47;100989.44;;;34.25;38.47
56402;BME280;42299;35.160;26.100;2023-06-22T12:40:12;100985.22;;;34.32;38.57
56402;BME280;42299;35.160;26.100;2023-06-22T12:50:35;100989.34;;;34.49;39.19
56402;BME280;42299;35.160;26.100;2023-06-22T13:00:59;100982.25;;;34.79;39.07
56402;BME280;42299;35.160;26.100;2023-06-22T13:11:22;100979.16;;;34.16;38.14
56402;BME280;42299;35.160;26.100;2023-06-22T13:21:46;100981.00;;;33.93;38.41
56402;BME280;42299;35.160;26.100;2023-06-22T13:32:08;100978.50;;;34.25;38.50
56402;BME280;42299;35.160;26.100;2023-06-22T13:42:33;100993.09;;;34.01;39.75
56402;BME280;42299;35.160;26.100;2023-06-22T13:52:56;100983.13;;;33.66;40.17
56402;BME280;42299;35.160;26.100;2023-06-22T14:03:20;100984.59;;;33.58;41.43
56402;BME280;42299;35.160;26.100;2023-06-22T14:13:43;100991.28;;;33.54;42.20
56402;BME280;42299;35.160;26.100;2023-06-22T14:24:08;100977.22;;;33.11;41.93
56402;BME280;42299;35.160;26.100;2023-06-22T14:34:31;100983.94;;;33.55;41.54
56402;BME280;42299;35.160;26.100;2023-06-22T14:44:58;100977.91;;;33.39;41.66
56402;BME280;42299;35.160;26.100;2023-06-22T14:55:22;100988.19;;;33.35;41.33
56402;BME280;42299;35.160;26.100;2023-06-22T15:05:46;100975.22;;;32.77;40.95
56402;BME280;42299;35.160;26.100;2023-06-22T15:16:10;100967.75;;;31.78;41.48
56402;BME280;42299;35.160;26.100;2023-06-22T15:26:35;100984.09;;;31.38;41.58
56402;BME280;42299;35.160;26.100;2023-06-22T15:36:59;100994.25;;;31.09;42.16
56402;BME280;42299;35.160;26.100;2023-06-22T15:47:24;100979.75;;;30.24;44.09
56402;BME280;42299;35.160;26.100;2023-06-22T15:57:47;100985.31;;;29.62;46.13
56402;BME280;42299;35.160;26.100;2023-06-22T16:08:12;100986.34;;;29.14;49.15
56402;BME280;42299;35.160;26.100;2023-06-22T16:18:35;100990.09;;;28.96;50.90
56402;BME280;42299;35.160;26.100;2023-06-22T16:29:00;100983.00;;;28.78;51.15
56402;BME280;42299;35.160;26.100;2023-06-22T16:39:23;100974.19;;;28.57;52.93
56402;BME280;42299;35.160;26.100;2023-06-22T16:49:49;100965.38;;;28.36;53.76
56402;BME280;42299;35.160;26.100;2023-06-22T17:00:14;100962.88;;;28.16;54.06
56402;BME280;42299;35.160;26.100;2023-06-22T17:10:39;100974.94;;;27.93;56.58
56402;BME280;42299;35.160;26.100;2023-06-22T17:21:03;100960.50;;;27.75;57.99
56402;BME280;42299;35.160;26.100;2023-06-22T17:31:36;100959.84;;;27.53;60.09
56402;BME280;42299;35.160;26.100;2023-06-22T17:42:00;100967.38;;;27.29;61.71
56402;BME280;42299;35.160;26.100;2023-06-22T17:52:26;100963.72;;;27.12;64.27
56402;BME280;42299;35.160;26.100;2023-06-22T18:02:50;100967.88;;;27.02;65.89
56402;BME280;42299;35.160;26.100;2023-06-22T18:13:15;100984.72;;;26.89;68.46
56402;BME280;42299;35.160;26.100;2023-06-22T18:23:40;100987.84;;;26.80;70.47
56402;BME280;42299;35.160;26.100;2023-06-22T18:34:07;100998.38;;;26.68;73.50
56402;BME280;42299;35.160;26.100;2023-06-22T18:44:33;101008.19;;;26.51;79.40
56402;BME280;42299;35.160;26.100;2023-06-22T18:55:01;100995.97;;;26.43;83.76
56402;BME280;42299;35.160;26.100;2023-06-22T19:05:37;100997.19;;;26.36;87.10
56402;BME280;42299;35.160;26.100;2023-06-22T19:16:05;100997.84;;;26.20;91.50
56402;BME280;42299;35.160;26.100;2023-06-22T19:26:31;100994.53;;;26.14;93.99
56402;BME280;42299;35.160;26.100;2023-06-22T19:36:59;100993.91;;;26.07;95.34
56402;BME280;42299;35.160;26.100;2023-06-22T19:47:22;100987.13;;;25.99;97.99
56402;BME280;42299;35.160;26.100;2023-06-22T19:57:48;100994.47;;;25.95;99.30
56402;BME280;42299;35.160;26.100;2023-06-22T20:08:13;100986.50;;;25.92;99.96
56402;BME280;42299;35.160;26.100;2023-06-22T20:18:38;101004.75;;;25.87;100.00
56402;BME280;42299;35.160;26.100;2023-06-22T20:29:01;100998.81;;;25.79;100.00
56402;BME280;42299;35.160;26.100;2023-06-22T20:39:26;100982.97;;;25.70;100.00
56402;BME280;42299;35.160;26.100;2023-06-22T20:49:49;100965.31;;;25.61;100.00
56402;BME280;42299;35.160;26.100;2023-06-22T21:00:15;100971.84;;;25.56;100.00
56402;BME280;42299;35.160;26.100;2023-06-22T21:10:38;100975.63;;;25.52;100.00
56402;BME280;42299;35.160;26.100;2023-06-22T21:21:03;100974.13;;;25.45;100.00
56402;BME280;42299;35.160;26.100;2023-06-22T21:31:06;100960.94;;;25.37;100.00
56402;BME280;42299;35.160;26.100;2023-06-22T21:41:31;100965.59;;;25.33;100.00
56402;BME280;42299;35.160;26.100;2023-06-22T21:51:54;100950.16;;;25.35;100.00
56402;BME280;42299;35.160;26.100;2023-06-22T22:02:19;100929.56;;;25.33;100.00
56402;BME280;42299;35.160;26.100;2023-06-22T22:12:42;100923.63;;;25.25;100.00
56402;BME280;42299;35.160;26.100;2023-06-22T22:23:06;100930.16;;;25.19;100.00
56402;BME280;42299;35.160;26.100;2023-06-22T22:33:30;100909.75;;;25.12;100.00
56402;BME280;42299;35.160;26.100;2023-06-22T22:43:57;100914.38;;;25.09;100.00
56402;BME280;42299;35.160;26.100;2023-06-22T22:54:20;100893.69;;;25.08;100.00
56402;BME280;42299;35.160;26.100;2023-06-22T23:04:53;100883.09;;;25.03;100.00
56402;BME280;42299;35.160;26.100;2023-06-22T23:15:17;100888.06;;;24.92;100.00
56402;BME280;42299;35.160;26.100;2023-06-22T23:25:42;100873.97;;;24.84;100.00
56402;BME280;42299;35.160;26.100;2023-06-22T23:36:06;100874.97;;;24.81;100.00
56402;BME280;42299;35.160;26.100;2023-06-22T23:46:31;100866.94;;;24.80;100.00
56402;BME280;42299;35.160;26.100;2023-06-22T23:56:54;100859.25;;;24.69;100.00
